createdAt,value
2022-09-15T00:09:40.486Z,0
2022-09-15T00:19:43.508Z,2
2022-09-15T00:29:47.010Z,1
2022-09-15T00:39:50.747Z,0
2022-09-15T00:49:58.349Z,3
2022-09-15T00:59:58.410Z,0
2022-09-15T01:10:01.846Z,0
2022-09-15T01:20:05.434Z,0
2022-09-15T01:30:09.150Z,0
2022-09-15T01:40:12.914Z,0
2022-09-15T01:50:16.773Z,0
2022-09-15T02:00:20.450Z,0
2022-09-15T02:10:23.599Z,0
2022-09-15T02:20:26.869Z,0
2022-09-15T02:30:30.641Z,0
2022-09-15T02:40:34.199Z,0
2022-09-15T02:50:37.866Z,0
2022-09-15T03:00:41.053Z,0
2022-09-15T03:10:44.873Z,0
2022-09-15T03:20:48.762Z,10
2022-09-15T03:30:52.465Z,3
2022-09-15T03:40:56.481Z,2
2022-09-15T03:50:59.606Z,3
2022-09-15T04:01:02.997Z,1
2022-09-15T04:11:06.590Z,2
2022-09-15T04:21:09.755Z,0
2022-09-15T04:31:13.726Z,3
2022-09-15T04:41:17.484Z,2
2022-09-15T04:51:20.612Z,0
2022-09-15T05:01:23.928Z,5
2022-09-15T05:11:27.859Z,7
2022-09-15T05:21:31.629Z,2
2022-09-15T05:31:35.410Z,2
2022-09-15T05:41:39.171Z,3
2022-09-15T06:01:54.357Z,3
2022-09-15T06:11:58.069Z,1
2022-09-15T06:22:01.837Z,6
2022-09-15T06:32:05.155Z,3
2022-09-15T06:42:09.508Z,1
2022-09-15T06:52:12.134Z,5
2022-09-15T07:02:15.562Z,9
2022-09-15T07:12:19.427Z,0
2022-09-15T07:22:22.258Z,10
2022-09-15T07:32:25.904Z,5
2022-09-15T07:42:33.353Z,0
2022-09-15T07:52:33.602Z,4
2022-09-15T08:02:36.993Z,0
2022-09-15T08:12:40.552Z,4
2022-09-15T08:22:43.981Z,9
2022-09-15T08:42:51.287Z,4
2022-09-15T08:52:55.174Z,15
2022-09-15T09:02:58.437Z,9
2022-09-15T09:13:01.818Z,13
2022-09-15T09:23:05.781Z,17
2022-09-15T09:33:08.950Z,12
2022-09-15T09:43:12.622Z,16
2022-09-15T09:53:16.201Z,11
2022-09-15T10:03:19.801Z,21
2022-09-15T10:13:23.841Z,25
2022-09-15T10:23:27.627Z,5
2022-09-15T10:33:31.380Z,8
2022-09-15T10:43:34.591Z,2
2022-09-15T10:53:37.796Z,1
2022-09-15T11:03:41.490Z,5
2022-09-15T11:13:44.705Z,3
2022-09-15T11:23:48.556Z,0
2022-09-15T11:33:51.995Z,5
2022-09-15T11:43:55.918Z,10
2022-09-15T11:53:59.231Z,25
2022-09-15T12:04:02.469Z,22
2022-09-15T12:14:06.260Z,23
2022-09-15T12:24:09.836Z,17
2022-09-15T12:34:13.086Z,15
2022-09-15T12:44:16.824Z,14
2022-09-15T12:54:20.594Z,15
2022-09-15T13:04:24.117Z,20
2022-09-15T13:14:27.502Z,14
2022-09-15T13:24:31.318Z,32
2022-09-15T13:35:07.326Z,14
2022-09-15T13:44:37.923Z,9
2022-09-15T13:54:41.751Z,29
2022-09-15T14:04:45.592Z,11
2022-09-15T14:14:48.760Z,20
2022-09-15T14:24:52.402Z,15
2022-09-15T14:34:55.703Z,9
2022-09-15T14:55:02.774Z,21
2022-09-15T15:05:06.485Z,25
2022-09-15T15:15:10.169Z,19
2022-09-15T15:25:14.057Z,12
2022-09-15T15:35:17.747Z,9
2022-09-15T15:45:20.904Z,14
2022-09-15T15:55:24.512Z,17
2022-09-15T16:15:32.068Z,14
2022-09-15T16:35:39.285Z,10
2022-09-15T16:45:42.788Z,10
2022-09-15T16:55:46.409Z,22
2022-09-15T17:05:50.000Z,12
2022-09-15T17:15:53.994Z,13
2022-09-15T17:36:01.275Z,5
2022-09-15T17:46:04.636Z,18
2022-09-15T17:56:08.018Z,13
2022-09-15T18:06:11.267Z,20
2022-09-15T18:16:14.986Z,12
2022-09-15T18:26:20.548Z,12
2022-09-15T18:36:21.765Z,15
2022-09-15T18:46:25.527Z,14
2022-09-15T18:56:28.694Z,2
2022-09-15T19:06:31.863Z,3
2022-09-15T19:16:54.147Z,10
2022-09-15T19:26:39.463Z,4
2022-09-15T19:36:43.252Z,8
2022-09-15T19:46:47.117Z,18
2022-09-15T19:56:50.349Z,22
2022-09-15T20:27:01.281Z,8
2022-09-15T20:37:05.165Z,2
2022-09-15T20:47:08.855Z,1
2022-09-15T20:57:12.834Z,4
2022-09-15T21:07:15.985Z,11
2022-09-15T21:27:23.397Z,7
2022-09-15T21:57:34.212Z,7
2022-09-15T22:07:38.152Z,4
2022-09-15T22:17:42.028Z,3
2022-09-15T22:27:45.968Z,4
2022-09-15T22:37:49.849Z,1
2022-09-15T22:47:53.548Z,4
2022-09-15T22:57:57.065Z,3
2022-09-15T23:08:00.755Z,4
2022-09-15T23:18:04.532Z,2
2022-09-15T23:28:07.923Z,3
2022-09-15T23:38:11.466Z,2
2022-09-15T23:48:15.202Z,11
2022-09-15T23:58:18.735Z,10
